Time;durP1;ratioP1;P1;durP2;ratioP2;P2;SDS_P1;SDS_P2;PMS_P1;PMS_P2;Temp;Humidity;BMP_temperature;BMP_pressure;BME280_temperature;BME280_humidity;BME280_pressure;Samples;Min_cycle;Max_cycle;Signal;HPM_P1;HPM_P2
2021/08/07 00:01:52;;;;;;;;;12.75;12.00;;;;;19.36;65.21;100187.06;5060237;28;45474;-60
2021/08/07 00:04:17;;;;;;;;;24.75;21.25;;;;;19.34;63.80;100188.97;5060880;28;45500;-61
2021/08/07 00:06:43;;;;;;;;;4.00;3.00;;;;;19.30;64.54;100182.25;5061049;28;46123;-60
2021/08/07 00:09:08;;;;;;;;;1.50;1.25;;;;;19.29;64.07;100185.00;5061415;28;45291;-60
2021/08/07 00:11:34;;;;;;;;;3.50;1.25;;;;;19.27;64.69;100184.28;5061060;28;45366;-61
2021/08/07 00:13:59;;;;;;;;;2.00;1.00;;;;;19.25;64.54;100180.91;5060438;28;45453;-62
2021/08/07 00:16:24;;;;;;;;;1.75;1.00;;;;;19.24;65.12;100185.34;5059741;28;46585;-63
2021/08/07 00:18:50;;;;;;;;;1.00;1.00;;;;;19.19;64.65;100181.31;5056248;28;45329;-61
2021/08/07 00:21:15;;;;;;;;;1.00;1.00;;;;;19.14;64.73;100179.88;5051744;28;45331;-60
2021/08/07 00:23:40;;;;;;;;;2.25;1.25;;;;;19.11;65.09;100188.00;5050773;28;45432;-62
2021/08/07 00:26:06;;;;;;;;;2.75;1.25;;;;;19.11;65.13;100176.63;5052869;28;46037;-61
2021/08/07 00:28:31;;;;;;;;;2.25;2.25;;;;;19.10;64.58;100180.22;5050380;28;45639;-61
2021/08/07 00:30:56;;;;;;;;;2.50;0.50;;;;;19.07;65.40;100175.16;5051927;28;45688;-62
2021/08/07 00:33:22;;;;;;;;;3.25;2.50;;;;;19.07;65.19;100178.63;5051578;28;45900;-61
2021/08/07 00:35:47;;;;;;;;;4.25;3.00;;;;;18.96;65.20;100168.03;5050539;28;46085;-61
2021/08/07 00:38:13;;;;;;;;;2.50;1.50;;;;;18.94;65.20;100174.34;5051078;28;45331;-61
2021/08/07 00:40:38;;;;;;;;;1.00;0.50;;;;;18.96;65.02;100173.28;5060720;28;45473;-61
2021/08/07 00:43:04;;;;;;;;;3.00;2.00;;;;;18.93;65.46;100167.41;5060479;28;45549;-61
2021/08/07 00:45:29;;;;;;;;;4.00;2.00;;;;;18.84;66.69;100161.00;5060286;28;45926;-62
2021/08/07 00:47:54;;;;;;;;;4.00;1.00;;;;;18.80;65.71;100154.25;5061223;28;45575;-62
2021/08/07 00:50:20;;;;;;;;;2.00;1.00;;;;;18.78;65.73;100158.78;5060638;28;45263;-62
2021/08/07 00:52:45;;;;;;;;;1.75;1.00;;;;;18.77;65.90;100162.38;5060622;28;45512;-62
2021/08/07 00:55:11;;;;;;;;;3.75;3.75;;;;;18.71;66.40;100162.81;5060482;28;46133;-62
2021/08/07 00:57:36;;;;;;;;;3.00;1.00;;;;;18.66;65.85;100159.66;5059030;28;45244;-60
2021/08/07 01:00:04;;;;;;;;;3.00;1.75;;;;;18.62;66.24;100152.88;5060456;28;45153;-60
2021/08/07 01:02:29;;;;;;;;;1.00;1.00;;;;;18.62;66.57;100158.16;5059297;28;45509;-60
2021/08/07 01:05:21;;;;;;;;;2.00;1.50;;;;;18.59;66.25;100164.47;5060401;28;46125;-60
2021/08/07 01:08:05;;;;;;;;;4.00;2.00;;;;;18.57;66.46;100160.28;5060385;28;45580;-60
2021/08/07 01:10:39;;;;;;;;;2.25;2.00;;;;;18.55;66.72;100160.38;5060293;28;45240;-60
2021/08/07 01:13:24;;;;;;;;;1.25;1.25;;;;;18.53;66.48;100154.38;5060019;28;45290;-61
2021/08/07 01:16:01;;;;;;;;;2.75;2.00;;;;;18.53;66.77;100157.84;5060072;28;46158;-61
2021/08/07 01:18:29;;;;;;;;;2.25;2.00;;;;;18.50;67.52;100152.81;5060415;28;45401;-61
2021/08/07 01:20:56;;;;;;;;;1.75;1.00;;;;;18.48;66.96;100146.81;5060293;28;45322;-61
2021/08/07 01:23:21;;;;;;;;;4.25;2.00;;;;;18.50;67.27;100154.59;5060175;28;45322;-60
2021/08/07 01:25:55;;;;;;;;;0.33;0.33;;;;;18.50;66.88;100142.28;5058395;28;46139;-61
2021/08/07 01:28:23;;;;;;;;;1.75;1.00;;;;;18.49;67.13;100153.75;5059900;28;45443;-60
2021/08/07 01:30:51;;;;;;;;;2.00;2.00;;;;;18.45;67.35;100146.19;5060127;28;45246;-61
2021/08/07 01:33:18;;;;;;;;;2.50;2.00;;;;;18.42;68.00;100147.25;5060148;28;45487;-61
2021/08/07 01:35:44;;;;;;;;;2.00;2.00;;;;;18.35;68.05;100145.97;5059811;28;47148;-60
2021/08/07 01:38:10;;;;;;;;;4.00;2.00;;;;;18.31;67.35;100139.25;5060163;28;45300;-60
2021/08/07 01:40:35;;;;;;;;;1.00;1.00;;;;;18.27;69.17;100144.84;5060401;28;45340;-60
2021/08/07 01:43:00;;;;;;;;;1.50;1.50;;;;;18.23;68.94;100147.69;5059589;28;45434;-60
2021/08/07 01:45:26;;;;;;;;;2.00;2.00;;;;;18.21;68.51;100143.44;5059439;28;45420;-60
2021/08/07 01:48:14;;;;;;;;;4.25;1.25;;;;;18.20;68.26;100141.75;5059146;28;45457;-60
2021/08/07 01:50:58;;;;;;;;;1.00;1.00;;;;;18.16;68.92;100132.41;5059900;28;45235;-60
2021/08/07 01:53:28;;;;;;;;;3.75;2.00;;;;;18.06;70.20;100134.84;5059575;28;45660;-61
2021/08/07 01:56:19;;;;;;;;;0.25;0.25;;;;;18.07;69.08;100138.31;5059744;28;45389;-61
2021/08/07 01:58:49;;;;;;;;;0.75;0.00;;;;;18.03;70.06;100140.31;5057795;28;45619;-60
2021/08/07 02:01:15;;;;;;;;;1.75;1.75;;;;;17.93;69.52;100119.03;5058533;28;45337;-61
2021/08/07 02:03:43;;;;;;;;;2.00;1.00;;;;;17.93;69.51;100124.28;5059865;28;45339;-60
2021/08/07 02:06:08;;;;;;;;;2.00;0.50;;;;;17.95;69.66;100124.19;5059311;28;45402;-62
2021/08/07 02:08:36;;;;;;;;;1.00;1.00;;;;;17.94;69.42;100120.72;5059718;28;45306;-62
2021/08/07 02:11:03;;;;;;;;;1.50;1.50;;;;;17.96;69.57;100117.16;5059209;28;45212;-62
2021/08/07 02:13:29;;;;;;;;;1.00;1.00;;;;;17.89;69.59;100112.31;5059248;28;45504;-61
2021/08/07 02:15:55;;;;;;;;;1.75;1.00;;;;;17.92;69.50;100117.34;5058037;28;45557;-61
2021/08/07 02:18:22;;;;;;;;;1.00;1.00;;;;;17.93;69.84;100118.19;5058964;28;45311;-61
2021/08/07 02:20:50;;;;;;;;;2.00;2.00;;;;;17.84;69.86;100117.03;5058187;28;45353;-61
2021/08/07 02:23:17;;;;;;;;;3.00;1.50;;;;;17.82;69.58;100121.56;5059098;28;45700;-61
2021/08/07 02:25:44;;;;;;;;;1.00;1.00;;;;;17.84;69.61;100124.94;5057836;28;45405;-61
2021/08/07 02:28:13;;;;;;;;;2.00;1.00;;;;;17.87;69.57;100119.47;5058653;28;45707;-61
2021/08/07 02:30:40;;;;;;;;;3.75;2.25;;;;;17.88;69.74;100108.00;5056974;28;45528;-60
2021/08/07 02:33:07;;;;;;;;;3.00;1.50;;;;;17.88;70.00;100110.63;5059014;28;45283;-61
2021/08/07 02:35:34;;;;;;;;;1.00;1.00;;;;;17.86;69.79;100112.53;5058317;28;45511;-61
2021/08/07 02:38:00;;;;;;;;;1.00;1.00;;;;;17.88;69.70;100107.16;5058865;28;45698;-61
2021/08/07 02:40:26;;;;;;;;;2.00;2.00;;;;;17.90;69.57;100103.47;5056450;28;45372;-61
2021/08/07 02:42:53;;;;;;;;;1.00;1.00;;;;;17.89;69.67;100101.78;5068888;28;45326;-61
2021/08/07 02:45:18;;;;;;;;;1.50;1.00;;;;;17.89;69.75;100099.16;5058368;28;46152;-61
2021/08/07 02:47:44;;;;;;;;;1.00;1.00;;;;;17.90;69.57;100098.22;5059386;28;45222;-61
2021/08/07 02:50:11;;;;;;;;;1.50;1.50;;;;;17.94;69.17;100099.69;5057860;28;45194;-61
2021/08/07 02:52:37;;;;;;;;;2.00;2.00;;;;;17.93;69.58;100095.38;5059401;28;45387;-61
2021/08/07 02:55:03;;;;;;;;;3.50;2.00;;;;;17.91;69.79;100097.28;5057432;28;46522;-61
2021/08/07 02:57:30;;;;;;;;;5.50;2.75;;;;;17.89;69.51;100096.53;5058843;28;45303;-61
2021/08/07 02:59:57;;;;;;;;;4.25;2.00;;;;;17.83;69.72;100096.97;5061341;28;45297;-60
2021/08/07 03:02:23;;;;;;;;;6.00;1.75;;;;;17.87;69.74;100097.59;5062634;28;45252;-60
2021/08/07 03:04:48;;;;;;;;;4.00;2.00;;;;;17.83;70.29;100086.44;5062109;28;45398;-62
2021/08/07 03:07:13;;;;;;;;;5.25;2.00;;;;;17.80;69.86;100091.88;5062472;28;45354;-62
2021/08/07 03:09:39;;;;;;;;;3.50;1.75;;;;;17.82;70.63;100087.41;5062333;28;45483;-61
2021/08/07 03:12:04;;;;;;;;;1.50;1.50;;;;;17.83;69.91;100089.09;5061858;28;45274;-61
2021/08/07 03:14:30;;;;;;;;;2.50;1.00;;;;;17.86;70.40;100072.25;5061684;28;46272;-60
2021/08/07 03:16:55;;;;;;;;;1.00;1.00;;;;;17.89;70.13;100074.66;5062474;28;45295;-61
2021/08/07 03:19:20;;;;;;;;;2.00;2.00;;;;;17.90;69.62;100074.56;5062223;28;45215;-60
2021/08/07 03:21:46;;;;;;;;;2.00;1.75;;;;;17.92;69.58;100064.78;5062197;28;45257;-61
2021/08/07 03:24:11;;;;;;;;;2.75;1.75;;;;;17.94;69.54;100060.25;5061962;28;45243;-61
2021/08/07 03:26:37;;;;;;;;;2.75;1.75;;;;;18.00;69.48;100055.50;5060500;28;45311;-61
2021/08/07 03:29:02;;;;;;;;;2.00;1.00;;;;;18.02;69.23;100061.50;5061869;28;45705;-60
2021/08/07 03:31:27;;;;;;;;;1.50;1.50;;;;;18.06;69.26;100058.59;5062102;28;45434;-61
2021/08/07 03:33:53;;;;;;;;;2.00;1.25;;;;;18.10;68.88;100053.94;5062059;28;45998;-60
2021/08/07 03:36:18;;;;;;;;;1.00;1.00;;;;;18.13;68.85;100059.81;5061900;28;45236;-61
2021/08/07 03:38:43;;;;;;;;;3.00;1.50;;;;;18.18;68.85;100049.81;5061912;28;45305;-61
2021/08/07 03:41:09;;;;;;;;;1.75;1.00;;;;;18.13;68.50;100043.22;5061819;28;45381;-61
2021/08/07 03:43:35;;;;;;;;;3.50;2.75;;;;;18.23;68.34;100057.41;5061122;28;45922;-61
2021/08/07 03:46:00;;;;;;;;;1.75;1.75;;;;;18.24;68.81;100056.47;5061593;28;45763;-60
2021/08/07 03:48:26;;;;;;;;;3.00;1.00;;;;;18.25;68.86;100050.25;5061761;28;45313;-60
2021/08/07 03:50:51;;;;;;;;;1.50;1.00;;;;;18.23;68.58;100045.09;5061847;28;45273;-62
2021/08/07 03:53:17;;;;;;;;;2.00;2.00;;;;;18.24;69.02;100051.19;5061316;28;45251;-61
2021/08/07 03:55:42;;;;;;;;;2.00;2.00;;;;;18.22;68.64;100046.06;5061491;28;45259;-61
2021/08/07 03:58:07;;;;;;;;;4.00;2.00;;;;;18.27;68.85;100045.72;5061258;28;45176;-60
2021/08/07 04:00:34;;;;;;;;;4.50;3.50;;;;;18.29;68.88;100040.34;5061562;28;45402;-60
2021/08/07 04:03:00;;;;;;;;;4.25;1.50;;;;;18.26;69.09;100033.53;5061148;28;45432;-60
2021/08/07 04:05:26;;;;;;;;;2.00;2.00;;;;;18.26;68.60;100025.63;5061391;28;45149;-60
2021/08/07 04:07:52;;;;;;;;;1.25;0.75;;;;;18.27;68.75;100027.31;5050272;28;45305;-60
2021/08/07 04:10:18;;;;;;;;;3.00;2.00;;;;;18.29;68.90;100030.66;5060401;28;45575;-60
2021/08/07 04:12:44;;;;;;;;;7.25;2.00;;;;;18.28;68.83;100030.78;5060747;28;46160;-60
2021/08/07 04:15:10;;;;;;;;;2.25;2.25;;;;;18.27;68.83;100026.47;5060994;28;45716;-60
2021/08/07 04:17:37;;;;;;;;;4.00;3.75;;;;;18.24;68.94;100032.78;5061745;28;45325;-59
2021/08/07 04:20:05;;;;;;;;;2.00;2.00;;;;;18.25;69.22;100037.09;5061319;28;45448;-59
2021/08/07 04:22:31;;;;;;;;;3.00;3.00;;;;;18.22;69.37;100039.94;5060888;28;46400;-59
2021/08/07 04:24:56;;;;;;;;;3.00;1.25;;;;;18.25;69.47;100039.72;5061088;28;45341;-59
2021/08/07 04:27:23;;;;;;;;;2.00;2.00;;;;;18.22;69.37;100030.28;5060623;28;45411;-59
2021/08/07 04:29:49;;;;;;;;;2.25;1.00;;;;;18.26;69.25;100038.78;5061013;28;45388;-59
2021/08/07 04:32:15;;;;;;;;;2.25;2.25;;;;;18.27;69.41;100029.09;5061287;28;45411;-59
2021/08/07 04:34:41;;;;;;;;;3.25;2.00;;;;;18.27;69.29;100026.47;5061221;28;45469;-59
2021/08/07 04:37:06;;;;;;;;;1.75;1.50;;;;;18.19;69.68;100032.25;5060802;28;45530;-60
2021/08/07 04:39:31;;;;;;;;;3.00;2.50;;;;;18.09;69.71;100028.59;5061022;28;45330;-59
2021/08/07 04:41:57;;;;;;;;;4.00;2.00;;;;;18.02;70.44;100022.94;5063177;28;46278;-60
2021/08/07 04:44:22;;;;;;;;;1.00;1.00;;;;;17.95;71.13;100021.66;5068793;28;46782;-59
2021/08/07 04:46:47;;;;;;;;;2.00;2.00;;;;;17.90;71.50;100023.78;5060443;28;45376;-60
2021/08/07 04:49:13;;;;;;;;;2.50;2.50;;;;;17.88;71.62;100025.66;5060756;28;45478;-59
2021/08/07 04:51:38;;;;;;;;;3.50;2.00;;;;;17.84;72.40;100022.41;5060438;28;45524;-61
2021/08/07 04:54:04;;;;;;;;;8.00;4.25;;;;;17.78;72.23;100017.56;5060607;28;45288;-59
2021/08/07 04:56:30;;;;;;;;;3.50;3.50;;;;;17.79;72.57;100013.16;5060875;28;45235;-61
2021/08/07 04:58:55;;;;;;;;;3.50;3.00;;;;;17.79;72.38;100010.53;5060369;28;45181;-60
2021/08/07 05:01:20;;;;;;;;;4.00;2.00;;;;;17.78;72.96;100017.56;5060479;28;45704;-61
2021/08/07 05:03:46;;;;;;;;;3.25;3.00;;;;;17.79;72.73;100010.53;5060509;28;48585;-61
2021/08/07 05:06:11;;;;;;;;;3.75;3.00;;;;;17.81;72.90;100006.00;5060539;28;45156;-60
2021/08/07 05:08:37;;;;;;;;;3.75;2.00;;;;;17.78;73.61;100009.69;5060338;28;45165;-60
2021/08/07 05:11:03;;;;;;;;;2.25;1.25;;;;;17.77;73.20;100007.16;5059885;28;46222;-60
2021/08/07 05:13:28;;;;;;;;;4.00;2.00;;;;;17.82;73.38;100011.19;5060212;28;45341;-60
2021/08/07 05:15:54;;;;;;;;;3.25;2.50;;;;;17.88;73.32;100010.75;5060327;28;45433;-60
2021/08/07 05:18:19;;;;;;;;;8.50;4.00;;;;;17.94;73.51;99996.31;5060457;28;45393;-59
2021/08/07 05:20:45;;;;;;;;;2.50;2.00;;;;;17.96;73.39;99994.41;5060092;28;46063;-59
2021/08/07 05:23:10;;;;;;;;;10.25;4.25;;;;;17.97;73.62;99990.00;5059128;28;45320;-60
2021/08/07 05:25:35;;;;;;;;;7.00;2.25;;;;;18.00;73.39;99989.78;5059864;28;45430;-60
2021/08/07 05:28:00;;;;;;;;;5.00;2.75;;;;;18.05;73.05;99980.66;5059934;28;45550;-59
2021/08/07 05:30:26;;;;;;;;;3.00;2.00;;;;;18.19;72.91;99984.91;5059944;28;46130;-59
2021/08/07 05:32:51;;;;;;;;;4.75;2.75;;;;;18.29;72.89;99985.09;5060117;28;45320;-59
2021/08/07 05:35:17;;;;;;;;;3.00;3.00;;;;;18.37;72.73;99988.84;5060060;28;45251;-59
2021/08/07 05:37:42;;;;;;;;;2.75;2.75;;;;;18.45;72.48;99980.44;5053258;28;45460;-58
2021/08/07 05:40:09;;;;;;;;;2.00;2.00;;;;;18.53;72.01;99980.72;5050887;28;46034;-59
2021/08/07 05:42:35;;;;;;;;;2.50;1.25;;;;;18.58;71.96;99977.75;5053859;28;45247;-59
2021/08/07 05:45:01;;;;;;;;;2.50;2.00;;;;;18.66;71.78;99981.53;5053019;28;45281;-59
2021/08/07 05:47:26;;;;;;;;;3.75;2.25;;;;;18.70;71.32;99975.09;5051865;28;46217;-59
2021/08/07 05:49:51;;;;;;;;;2.00;2.00;;;;;18.70;71.29;99977.72;5050721;28;45303;-59
2021/08/07 05:52:17;;;;;;;;;3.00;2.75;;;;;18.66;71.48;99972.81;5052109;28;45199;-59
2021/08/07 05:54:42;;;;;;;;;2.75;2.00;;;;;18.71;71.29;99973.31;5052707;28;46373;-60
2021/08/07 05:57:08;;;;;;;;;4.00;3.00;;;;;18.74;71.02;99979.16;5051044;28;45430;-60
2021/08/07 05:59:33;;;;;;;;;4.25;3.00;;;;;18.74;70.73;99983.59;5049192;28;45536;-60
2021/08/07 06:01:58;;;;;;;;;5.75;5.00;;;;;18.79;71.03;99978.81;5049892;28;45351;-60
2021/08/07 06:04:24;;;;;;;;;3.00;2.50;;;;;18.78;71.18;99975.34;5051030;28;45354;-61
2021/08/07 06:06:49;;;;;;;;;3.25;2.00;;;;;18.81;71.10;99977.75;5050625;28;45481;-62
2021/08/07 06:09:14;;;;;;;;;2.00;2.00;;;;;18.82;70.10;99970.69;5050894;28;46033;-62
2021/08/07 06:11:40;;;;;;;;;5.25;3.25;;;;;18.83;70.80;99981.16;5053716;28;45366;-62
2021/08/07 06:14:05;;;;;;;;;1.75;1.75;;;;;18.87;70.74;99976.50;5050540;28;45368;-61
2021/08/07 06:16:30;;;;;;;;;4.00;2.50;;;;;18.86;70.51;99972.19;5051145;28;45377;-61
2021/08/07 06:18:56;;;;;;;;;3.75;3.00;;;;;18.84;71.11;99984.63;5049849;28;46095;-61
2021/08/07 06:21:21;;;;;;;;;4.50;2.00;;;;;18.82;70.67;99974.22;5052966;28;45395;-61
2021/08/07 06:23:47;;;;;;;;;1.75;1.25;;;;;18.82;70.80;99978.59;5055435;28;45480;-61
2021/08/07 06:26:14;;;;;;;;;5.25;3.00;;;;;18.82;70.95;99979.47;5058634;28;45244;-59
2021/08/07 06:28:39;;;;;;;;;4.25;2.50;;;;;18.82;70.84;99970.69;5059111;28;45315;-59
2021/08/07 06:31:06;;;;;;;;;2.75;2.75;;;;;18.84;71.03;99974.09;5059932;28;45161;-61
2021/08/07 06:33:33;;;;;;;;;3.50;3.50;;;;;18.74;71.71;99970.44;5059908;28;45476;-61
2021/08/07 06:36:00;;;;;;;;;4.75;3.75;;;;;18.72;71.67;99970.56;5062589;28;45605;-61
2021/08/07 06:38:25;;;;;;;;;6.75;3.00;;;;;18.76;71.33;99969.38;5062497;28;45574;-61
2021/08/07 06:40:51;;;;;;;;;2.75;2.75;;;;;18.70;71.58;99967.19;5062540;28;45471;-62
2021/08/07 06:43:18;;;;;;;;;3.75;3.00;;;;;18.70;71.60;99956.66;5062324;28;45541;-62
2021/08/07 06:45:43;;;;;;;;;3.25;2.75;;;;;18.76;71.59;99964.09;5061176;28;45484;-61
2021/08/07 06:48:08;;;;;;;;;6.75;3.00;;;;;18.81;71.91;99961.13;5062760;28;45338;-62
2021/08/07 06:50:34;;;;;;;;;2.25;1.50;;;;;18.80;71.79;99957.66;5060728;28;45411;-61
2021/08/07 06:52:59;;;;;;;;;6.25;4.25;;;;;18.82;71.67;99960.16;5061201;28;45256;-61
2021/08/07 06:55:24;;;;;;;;;3.25;3.25;;;;;18.91;71.59;99964.78;5062015;28;45228;-65
2021/08/07 06:57:50;;;;;;;;;2.00;2.00;;;;;19.00;71.49;99969.34;5062016;28;49761;-63
2021/08/07 07:00:15;;;;;;;;;3.75;2.50;;;;;19.15;71.06;99962.09;5062118;28;45226;-60
2021/08/07 07:02:40;;;;;;;;;2.00;2.00;;;;;19.18;70.89;99951.31;5054444;28;45242;-61
2021/08/07 07:05:06;;;;;;;;;2.00;2.00;;;;;19.17;70.75;99956.69;5060399;28;46148;-64
2021/08/07 07:07:32;;;;;;;;;3.75;2.00;;;;;19.24;71.06;99956.16;5062190;28;45505;-61
2021/08/07 07:09:57;;;;;;;;;2.75;2.75;;;;;19.22;71.06;99951.91;5061334;28;45316;-60
2021/08/07 07:12:22;;;;;;;;;3.50;2.00;;;;;19.33;70.67;99959.84;5062186;28;45285;-60
2021/08/07 07:14:48;;;;;;;;;5.00;2.00;;;;;19.36;70.12;99959.63;5060916;28;45540;-62
2021/08/07 07:17:13;;;;;;;;;4.25;3.25;;;;;19.32;70.19;99958.19;5060306;28;47375;-61
2021/08/07 07:19:39;;;;;;;;;4.25;2.50;;;;;19.45;70.49;99966.84;5061045;28;45456;-62
2021/08/07 07:22:05;;;;;;;;;2.25;2.25;;;;;19.64;69.67;99961.03;5061663;28;45510;-59
2021/08/07 07:24:30;;;;;;;;;2.25;2.25;;;;;19.77;69.60;99958.25;5060820;28;45424;-61
2021/08/07 07:26:56;;;;;;;;;1.00;1.00;;;;;19.84;68.78;99954.19;5055916;28;46135;-62
2021/08/07 07:29:21;;;;;;;;;3.00;3.00;;;;;19.92;68.73;99957.06;5052741;28;45424;-64
2021/08/07 07:31:46;;;;;;;;;2.50;2.50;;;;;20.02;68.79;99963.28;5061687;28;45465;-62
2021/08/07 07:34:12;;;;;;;;;2.50;2.25;;;;;20.07;68.04;99945.31;5060829;28;45322;-65
2021/08/07 07:36:37;;;;;;;;;3.75;2.00;;;;;20.24;67.96;99944.81;5061721;28;45329;-65
2021/08/07 07:39:04;;;;;;;;;3.50;3.50;;;;;20.35;67.76;99941.28;5059451;28;45627;-63
2021/08/07 07:41:29;;;;;;;;;4.25;3.00;;;;;20.51;67.07;99930.34;5060880;28;45309;-61
2021/08/07 07:43:55;;;;;;;;;3.25;2.25;;;;;20.63;67.01;99926.72;5060383;28;45146;-59
2021/08/07 07:46:20;;;;;;;;;2.00;2.00;;;;;20.70;65.99;99938.44;5060250;28;46067;-62
2021/08/07 07:48:45;;;;;;;;;1.50;1.00;;;;;20.66;66.21;99942.31;5061565;28;45279;-62
2021/08/07 07:51:11;;;;;;;;;2.25;1.50;;;;;20.68;65.57;99937.75;5061928;28;45338;-62
2021/08/07 07:53:36;;;;;;;;;4.00;3.00;;;;;20.79;65.58;99942.97;5061509;28;45170;-61
2021/08/07 07:56:03;;;;;;;;;2.00;2.00;;;;;20.95;64.69;99930.16;5061338;28;46293;-67
2021/08/07 07:58:28;;;;;;;;;1.75;1.75;;;;;21.04;64.73;99918.00;5061237;28;45875;-60
2021/08/07 08:00:54;;;;;;;;;2.00;2.00;;;;;21.17;63.47;99926.56;5061622;28;45373;-62
2021/08/07 08:03:20;;;;;;;;;1.00;1.00;;;;;21.20;63.82;99925.44;5062006;28;45331;-64
2021/08/07 08:05:45;;;;;;;;;3.00;1.00;;;;;21.20;62.81;99933.38;5061299;28;46289;-61
2021/08/07 08:08:10;;;;;;;;;3.50;2.00;;;;;21.19;63.17;99921.97;5061167;28;45330;-59
2021/08/07 08:10:38;;;;;;;;;2.00;1.00;;;;;21.21;62.86;99921.84;5061369;28;45327;-60
2021/08/07 08:13:03;;;;;;;;;3.00;2.00;;;;;21.17;61.46;99915.97;5060915;28;45479;-60
2021/08/07 08:15:29;;;;;;;;;4.00;3.00;;;;;21.11;62.42;99921.78;5061087;28;45397;-60
2021/08/07 08:17:54;;;;;;;;;3.00;3.00;;;;;21.15;62.48;99912.63;5061608;28;45304;-59
2021/08/07 08:20:20;;;;;;;;;3.00;1.00;;;;;21.27;62.09;99920.53;5061460;28;45289;-60
2021/08/07 08:22:46;;;;;;;;;3.50;3.00;;;;;21.37;60.89;99916.13;5060964;28;45215;-59
2021/08/07 08:25:12;;;;;;;;;1.00;1.00;;;;;21.38;61.18;99910.72;5060974;28;45258;-63
2021/08/07 08:27:37;;;;;;;;;2.00;2.00;;;;;21.55;61.07;99909.25;5060360;28;45220;-62
2021/08/07 08:30:04;;;;;;;;;2.50;2.00;;;;;21.68;61.00;99911.69;5061133;28;45480;-60
2021/08/07 08:32:30;;;;;;;;;3.25;2.00;;;;;21.80;60.36;99903.50;5060734;28;45542;-64
2021/08/07 08:34:55;;;;;;;;;2.00;2.00;;;;;21.79;59.00;99899.19;5060962;28;46343;-66
2021/08/07 08:37:20;;;;;;;;;2.25;2.00;;;;;21.77;59.83;99908.22;5060613;28;45238;-64
2021/08/07 08:39:46;;;;;;;;;2.25;1.75;;;;;21.79;59.06;99901.00;5061109;28;45385;-63
2021/08/07 08:42:11;;;;;;;;;3.25;2.00;;;;;21.70;59.15;99897.38;5060118;28;45365;-63
2021/08/07 08:44:38;;;;;;;;;4.50;2.25;;;;;21.71;59.33;99890.25;5053861;28;45459;-63
2021/08/07 08:47:06;;;;;;;;;2.00;1.50;;;;;21.65;58.30;99885.53;5060295;28;45251;-63
2021/08/07 08:49:33;;;;;;;;;2.00;0.75;;;;;21.37;59.38;99887.88;5060962;28;45549;-67
2021/08/07 08:52:01;;;;;;;;;3.00;2.00;;;;;21.32;59.87;99876.88;5060664;28;45383;-70
2021/08/07 08:54:28;;;;;;;;;1.00;1.00;;;;;21.22;60.13;99883.88;5059112;28;47245;-71
2021/08/07 08:56:55;;;;;;;;;2.25;1.75;;;;;21.21;60.54;99879.56;5060008;28;45260;-70
2021/08/07 08:59:22;;;;;;;;;3.00;2.00;;;;;21.23;60.18;99867.91;5059695;28;45233;-68
2021/08/07 09:01:48;;;;;;;;;1.75;1.75;;;;;21.11;60.82;99881.31;5054609;28;45489;-64
2021/08/07 09:04:15;;;;;;;;;1.50;1.00;;;;;21.09;60.95;99884.09;5050746;28;46391;-64
2021/08/07 09:06:40;;;;;;;;;2.25;0.25;;;;;21.10;61.89;99874.38;5050931;28;45409;-66
2021/08/07 09:09:11;;;;;;;;;2.50;2.00;;;;;21.11;62.63;99878.69;5051427;28;45351;-66
2021/08/07 09:11:39;;;;;;;;;2.75;2.00;;;;;21.02;63.96;99868.88;5055158;28;45235;-64
2021/08/07 09:14:13;;;;;;;;;3.00;2.00;;;;;20.77;65.34;99868.31;5050650;28;46509;-64
2021/08/07 09:16:38;;;;;;;;;2.25;2.25;;;;;20.61;65.81;99879.31;5052756;28;45468;-63
2021/08/07 09:19:04;;;;;;;;;4.00;2.25;;;;;20.51;68.59;99878.41;5050242;28;45379;-61
2021/08/07 09:21:29;;;;;;;;;0.25;0.25;;;;;20.31;69.36;99871.25;5049582;28;45497;-62
2021/08/07 09:24:07;;;;;;;;;2.25;1.00;;;;;20.21;69.85;99871.16;5050782;28;45447;-70
2021/08/07 09:26:33;;;;;;;;;3.50;1.25;;;;;20.20;70.47;99864.19;5049045;28;45406;-69
2021/08/07 09:28:58;;;;;;;;;3.50;2.00;;;;;20.24;71.13;99865.66;5052022;28;45490;-73
2021/08/07 09:31:25;;;;;;;;;3.00;1.75;;;;;20.31;71.11;99869.44;5044235;28;45483;-67
2021/08/07 09:34:28;;;;;;;;;2.75;2.75;;;;;20.30;73.35;99869.56;5050188;28;46089;-67
2021/08/07 09:36:55;;;;;;;;;3.00;2.75;;;;;20.17;72.77;99861.81;5001768;28;45755;-73
2021/08/07 09:39:38;;;;;;;;;3.25;2.00;;;;;20.22;72.75;99869.34;5004197;28;45499;-67
2021/08/07 09:42:04;;;;;;;;;3.25;1.00;;;;;20.24;72.70;99862.16;5029537;28;45524;-67
2021/08/07 09:44:30;;;;;;;;;1.00;1.00;;;;;20.21;72.68;99860.59;5049218;28;45310;-70
2021/08/07 09:47:03;;;;;;;;;2.75;1.00;;;;;20.21;72.57;99857.97;5066569;27;45715;-68
2021/08/07 09:49:40;;;;;;;;;4.50;2.00;;;;;20.14;73.68;99864.69;5049560;28;45410;-71
2021/08/07 09:52:06;;;;;;;;;2.75;2.75;;;;;20.00;75.53;99864.97;5048557;28;45623;-71
2021/08/07 09:54:39;;;;;;;;;2.50;2.50;;;;;19.94;73.80;99874.22;5050313;28;46159;-68
2021/08/07 09:57:05;;;;;;;;;4.25;2.25;;;;;19.94;76.15;99860.19;5049278;28;45756;-69
2021/08/07 09:59:33;;;;;;;;;2.50;2.50;;;;;19.84;75.94;99862.75;5047763;28;45550;-68
2021/08/07 10:01:59;;;;;;;;;3.50;2.00;;;;;19.78;76.03;99865.00;5054315;28;45406;-68
2021/08/07 10:04:24;;;;;;;;;3.75;2.00;;;;;19.81;76.01;99851.59;5050670;28;47091;-67
2021/08/07 10:07:08;;;;;;;;;4.25;3.00;;;;;19.87;75.87;99866.94;5051780;28;45698;-69
2021/08/07 10:09:35;;;;;;;;;1.75;1.25;;;;;19.92;77.03;99876.16;5055890;28;45480;-67
2021/08/07 10:12:10;;;;;;;;;1.00;1.00;;;;;19.91;77.14;99871.00;5059835;28;45575;-69
2021/08/07 10:14:38;;;;;;;;;3.00;3.00;;;;;19.92;79.13;99864.75;5057394;28;45373;-69
2021/08/07 10:17:05;;;;;;;;;3.00;2.00;;;;;19.86;78.11;99855.56;5057433;28;45271;-68
2021/08/07 10:19:32;;;;;;;;;2.50;2.00;;;;;19.77;77.54;99868.63;5061734;28;45204;-68
2021/08/07 10:21:59;;;;;;;;;2.00;2.00;;;;;19.75;77.61;99866.94;5062319;28;45418;-68
2021/08/07 10:24:26;;;;;;;;;3.25;2.00;;;;;19.74;78.02;99857.34;5061363;28;45358;-68
2021/08/07 10:26:53;;;;;;;;;2.25;2.25;;;;;19.65;77.35;99852.81;5061622;28;45253;-68
2021/08/07 10:29:29;;;;;;;;;2.75;1.75;;;;;19.60;78.22;99854.97;5061311;28;45276;-67
2021/08/07 10:31:55;;;;;;;;;1.25;1.25;;;;;19.70;77.92;99853.28;5061817;28;45249;-66
2021/08/07 10:34:22;;;;;;;;;3.00;3.00;;;;;19.76;78.36;99838.78;5061675;28;46361;-64
2021/08/07 10:36:48;;;;;;;;;1.75;1.00;;;;;19.94;78.51;99841.75;5061794;28;45262;-64
2021/08/07 10:39:14;;;;;;;;;2.25;2.25;;;;;20.10;78.49;99847.47;5062160;28;45337;-66
2021/08/07 10:41:40;;;;;;;;;3.50;1.75;;;;;20.29;77.61;99833.59;5057995;28;45749;-67
2021/08/07 10:44:07;;;;;;;;;2.00;1.00;;;;;20.47;76.84;99828.63;5059942;28;45558;-66
2021/08/07 10:46:33;;;;;;;;;3.00;2.00;;;;;20.64;76.54;99822.78;5060012;28;45403;-66
2021/08/07 10:48:58;;;;;;;;;1.75;1.75;;;;;20.64;74.36;99828.06;5060481;28;45315;-66
2021/08/07 10:51:23;;;;;;;;;1.75;1.00;;;;;20.62;74.30;99829.97;5060480;28;45463;-65
2021/08/07 10:53:53;;;;;;;;;1.00;1.00;;;;;20.71;74.84;99817.81;5061587;28;47300;-66
2021/08/07 10:56:43;;;;;;;;;5.00;4.00;;;;;20.93;74.90;99813.22;5062039;28;45661;-66
2021/08/07 10:59:11;;;;;;;;;1.00;1.00;;;;;21.09;74.50;99814.56;5051457;28;45402;-66
2021/08/07 11:01:38;;;;;;;;;0.75;0.75;;;;;21.27;74.10;99820.13;5061744;28;45461;-66
2021/08/07 11:04:11;;;;;;;;;3.75;2.75;;;;;21.41;72.98;99825.84;5062006;28;45311;-66
2021/08/07 11:06:47;;;;;;;;;1.75;1.00;;;;;21.47;71.52;99816.56;5061803;28;45131;-66
2021/08/07 11:09:26;;;;;;;;;1.00;1.00;;;;;21.51;71.72;99815.31;5062152;28;45181;-65
2021/08/07 11:12:07;;;;;;;;;1.00;1.00;;;;;21.53;70.51;99801.00;5058615;28;45502;-64
2021/08/07 11:14:35;;;;;;;;;2.00;2.00;;;;;21.64;71.43;99802.72;5061597;28;46472;-64
2021/08/07 11:17:03;;;;;;;;;3.00;1.00;;;;;21.73;70.45;99811.63;5062283;28;45436;-63
2021/08/07 11:20:04;;;;;;;;;3.75;1.75;;;;;21.90;70.13;99807.47;5062019;28;45215;-66
2021/08/07 11:22:33;;;;;;;;;2.50;2.25;;;;;22.11;69.49;99808.22;5061903;28;45288;-61
2021/08/07 11:25:04;;;;;;;;;2.75;1.50;;;;;22.28;69.89;99817.28;5061868;28;46925;-61
2021/08/07 11:30:34;;;;;;;;;2.50;1.00;;;;;22.69;67.71;99794.94;5059367;28;45519;-64
2021/08/07 11:33:00;;;;;;;;;2.00;2.00;;;;;22.81;67.05;99782.34;5053644;28;45649;-64